Mesa, AZ

1:20 PM MST on September 22, 2014 (GMT -0700)
W 1st St.@ Date St. | Change Station
CLOSE
Current Station
Personal Weather Station
Location: Mesa, AZ
Elevation: 1230 ft
Nearby Weather Stations

Elev 1230 ft 33.41 °N, 111.85 °W | Updated 8 seconds ago

Clear
Clear
96.1 °F
Feels Like 94 °F
N
8.1
Wind Variable Wind from WSW
Gusts 8.1 mph

Today
High -- | Low -- °F
--% Chance of Precip.
Yesterday
High -- | Low -- °F
Precip. -- in
6:15 AM 6:23 PM
Waning Crescent, 2% visible
Pressure 29.96 in
Visibility 40.0 miles
Clouds Few 10000 ft
Heat Index 94 °F
Dew Point 52 °F
Humidity 23%
Rainfall 0.00 in
Snow Depth 2 in , 0 in
UV 9 out of 12
Pollen 6.70 out of 12
Ozone Good
PM2.5 Good
Flu Activity Not available.
METAR KFFZ 221947Z 23008KT 40SM FEW100 35/17 A2996

More Conditions Fewer Conditions

Pressure 29.96 in
Visibility 40.0 miles
Clouds Few 10000 ft
Heat Index 94 °F
Dew Point 52 °F
Humidity 23%
Rainfall 0.00 in
Snow Depth 2 in , 0 in
UV 9 out of 12
Pollen 6.70 out of 12
Ozone Good
PM2.5 Good
Flu Activity Not available.
METAR KFFZ 221947Z 23008KT 40SM FEW100 35/17 A2996

More Conditions Fewer Conditions

10-Day Weather Forecast

Almanac

Astronomy

Sep. 22, 2014 Rise Set
Actual Time 6:15 AM MST 6:23 PM MST
Civil Twilight 5:50 AM MST 6:48 PM MST
Nautical Twilight 5:21 AM MST 7:17 PM MST
Astronomical Twilight 4:52 AM MST 7:46 PM MST
Moon 4:50 AM MST 5:31 PM MST
Length of Visible Light 12h 57m
Length of Day
12h 08m
Tomorrow will be 2m 3s shorter.
Waning Crescent, 2% of the Moon is Illuminated
Today
Waning Crescent
Sep 24
New
Oct 1
First Quarter
Oct 8
Full
Oct 15
Last Quarter

Today's Extremes

State Highs State Lows

Community

WunderPhotos

Upload Photos

1,755,523 photos uploaded!

WunderBlogs® & News

Nearby

Air Quality

  Air Quality AQ Index Pollutant
Yesterday Good
OZONE
Yesterday Good
PM10
Current Good
PM2.5
Current Good
OZONE
Monday Moderate
OZONE
Monday Good
PM10
Monday Good
CO
Tuesday Moderate
OZONE
Tuesday Good
PM10
Tuesday Good
CO
Wednesday Moderate
OZONE
Wednesday Good
PM10
Wednesday Good
CO

Snow Depth

Station Depth Elevation
Workman Creek 2 in 6900 ft
Maverick Fork 0 in 9200 ft

Earthquake Activity

City Distance Mag. Time & Date
No recent earthquake activity has been reported nearby.
Minimum magnitude displayed is 2.5.

Coastal Water Temperatures

Place Temperature
No Stations Reporting

Nearby Weather Stations